Aviation Digital Data Service (ADDS)

Output produced by METARs form (0949 UTC 09 February 2016)
found at http://aviationweather.gov/adds/metars/
 
KSWF 090835Z 0909/1012 07005KT 6SM BR SCT008 OVC012 
     FM091400 08005KT P6SM SCT015 BKN020 
     FM100400 08004KT 2SM -SN BKN008 BKN015 AMD NOT SKED